Terminal Aerodrome Forecast
Issued by NWS

Home | Current Version | Previous Version | Graphics & Text | Print | Product List | Glossary On
Versions: 1 2 3 4 5 6 7 8 9 10 11 12 13 14 15 16 17 18
000
FTUS43 KABR 261300 AAA
TAFATY
TAF AMD
KATY 261327Z 2613/2712 36014KT 5SM BR BKN010 OVC025
      TEMPO 2613/2616 2SM -SN BR
     FM262000 35015KT P6SM OVC035
     FM270500 34008KT P6SM OVC060=

USA.gov is the U.S. government's official web portal to all federal, state and local government web resources and services.